Time;durP1;ratioP1;P1;durP2;ratioP2;P2;SDS_P1;SDS_P2;PMS_P1;PMS_P2;Temp;Humidity;BMP_temperature;BMP_pressure;BME280_temperature;BME280_humidity;BME280_pressure;Samples;Min_cycle;Max_cycle;Signal;HPM_P1;HPM_P2
2022/06/25 00:01:47;;;;;;;8.75;1.70;;;20.00;99.90;;;;;;5011811;28;20183;-80
2022/06/25 00:06:57;;;;;;;8.73;1.50;;;19.90;99.90;;;;;;5014719;28;20215;-80
2022/06/25 00:09:23;;;;;;;3.72;1.50;;;19.90;99.90;;;;;;5015783;28;20181;-80
2022/06/25 00:14:33;;;;;;;9.15;1.30;;;20.00;99.90;;;;;;5015971;28;20239;-80
2022/06/25 00:16:58;;;;;;;1.60;1.50;;;19.90;99.90;;;;;;5017025;28;20161;-80
2022/06/25 00:19:24;;;;;;;4.82;1.48;;;19.90;99.90;;;;;;5017251;28;20192;-79
2022/06/25 00:21:50;;;;;;;3.00;1.50;;;19.70;99.90;;;;;;5016794;28;20560;-81
2022/06/25 00:24:17;;;;;;;1.15;1.05;;;19.70;99.90;;;;;;5015659;28;20255;-80
2022/06/25 00:26:43;;;;;;;3.22;1.33;;;19.70;99.90;;;;;;5016475;28;20179;-80
2022/06/25 00:29:10;;;;;;;5.53;1.52;;;19.90;99.90;;;;;;5017093;28;20192;-80
2022/06/25 00:31:37;;;;;;;2.55;1.40;;;19.80;99.90;;;;;;5015917;28;20247;-80
2022/06/25 00:34:04;;;;;;;3.03;1.90;;;19.60;99.90;;;;;;5016320;28;20205;-92
2022/06/25 00:36:29;;;;;;;7.50;1.65;;;19.60;99.90;;;;;;5015692;28;20251;-81
2022/06/25 00:38:55;;;;;;;3.13;1.73;;;19.80;99.90;;;;;;5016477;28;20279;-80
2022/06/25 00:41:21;;;;;;;5.53;2.00;;;19.90;99.90;;;;;;5016278;28;20175;-80
2022/06/25 00:43:47;;;;;;;3.45;1.70;;;20.00;99.90;;;;;;5016102;28;20164;-80
2022/06/25 00:46:13;;;;;;;6.95;1.75;;;19.90;99.90;;;;;;5015448;28;20164;-79
2022/06/25 00:48:38;;;;;;;4.55;1.95;;;19.70;99.90;;;;;;5016412;28;20239;-80
2022/06/25 00:51:12;;;;;;;5.72;1.95;;;19.70;99.90;;;;;;5016607;28;20223;-81
2022/06/25 00:53:41;;;;;;;4.68;1.70;;;19.70;99.90;;;;;;5017218;28;20208;-80
2022/06/25 00:56:09;;;;;;;3.42;1.90;;;19.70;99.90;;;;;;5014977;28;20531;-81
2022/06/25 00:58:40;;;;;;;3.40;1.60;;;19.70;99.90;;;;;;5016056;28;20216;-80
2022/06/25 01:01:08;;;;;;;2.05;1.50;;;19.70;99.90;;;;;;5017123;28;20219;-80
2022/06/25 01:03:34;;;;;;;2.83;1.80;;;19.70;99.90;;;;;;5017295;28;20251;-80
2022/06/25 01:06:00;;;;;;;2.60;1.55;;;19.60;99.90;;;;;;5015539;28;20764;-78
2022/06/25 01:08:26;;;;;;;3.08;1.85;;;19.50;99.90;;;;;;5014982;28;20235;-79
2022/06/25 01:10:52;;;;;;;5.55;1.80;;;19.50;99.90;;;;;;5016518;28;20554;-79
2022/06/25 01:13:21;;;;;;;2.30;1.55;;;19.60;99.90;;;;;;5015384;28;20680;-79
2022/06/25 01:15:48;;;;;;;3.13;1.73;;;19.40;99.90;;;;;;5016761;28;20165;-80
2022/06/25 01:18:13;;;;;;;4.38;1.80;;;19.50;99.90;;;;;;5028858;28;20240;-80
2022/06/25 01:20:39;;;;;;;8.13;1.95;;;19.40;99.90;;;;;;5035940;28;20192;-79
2022/06/25 01:23:04;;;;;;;2.22;1.45;;;19.60;99.90;;;;;;5039110;28;20171;-80
2022/06/25 01:25:36;;;;;;;5.35;1.40;;;19.80;99.90;;;;;;5036435;28;20177;-79
2022/06/25 01:28:02;;;;;;;2.92;1.73;;;19.70;99.90;;;;;;5036511;28;20192;-79
2022/06/25 01:30:28;;;;;;;4.20;1.70;;;19.70;99.90;;;;;;5038624;28;20200;-79
2022/06/25 01:32:54;;;;;;;7.93;1.83;;;19.60;99.90;;;;;;5031310;28;20208;-79
2022/06/25 01:35:20;;;;;;;6.57;1.38;;;19.50;99.90;;;;;;5015575;28;20171;-79
2022/06/25 01:37:45;;;;;;;5.25;1.50;;;19.50;99.90;;;;;;5028357;28;20199;-79
2022/06/25 01:40:12;;;;;;;5.50;1.45;;;19.50;99.90;;;;;;5024770;28;20168;-79
2022/06/25 01:45:23;;;;;;;3.58;1.58;;;19.50;99.90;;;;;;5015193;28;20192;-79
2022/06/25 01:47:48;;;;;;;3.08;1.65;;;19.50;99.90;;;;;;5014709;28;20185;-80
2022/06/25 01:50:14;;;;;;;1.60;1.48;;;19.50;99.90;;;;;;5015055;28;20226;-93
2022/06/25 01:52:42;;;;;;;1.70;1.60;;;19.40;99.90;;;;;;5014843;28;20200;-80
2022/06/25 01:55:09;;;;;;;9.13;2.75;;;19.30;99.90;;;;;;5014348;28;20169;-79
2022/06/25 01:57:36;;;;;;;3.13;1.70;;;19.40;99.90;;;;;;5014307;28;20223;-79
2022/06/25 02:00:04;;;;;;;2.63;1.60;;;19.30;99.90;;;;;;5014305;28;20165;-80
2022/06/25 02:02:30;;;;;;;7.88;1.60;;;19.30;99.90;;;;;;5013075;28;20175;-81
2022/06/25 02:04:55;;;;;;;2.72;1.88;;;19.30;99.90;;;;;;5013084;28;20180;-79
2022/06/25 02:07:21;;;;;;;2.30;1.60;;;19.30;99.90;;;;;;5012703;28;20168;-80
2022/06/25 02:09:47;;;;;;;6.07;1.85;;;19.20;99.90;;;;;;5013629;28;20564;-79
2022/06/25 02:12:12;;;;;;;3.80;1.83;;;19.20;99.90;;;;;;5013691;28;20169;-80
2022/06/25 02:14:38;;;;;;;3.20;1.60;;;19.30;99.90;;;;;;5013431;28;20216;-79
2022/06/25 02:17:03;;;;;;;2.20;1.63;;;19.20;99.90;;;;;;5012839;28;20603;-78
2022/06/25 02:19:29;;;;;;;1.75;1.65;;;19.10;99.90;;;;;;5013785;28;20235;-79
2022/06/25 02:21:55;;;;;;;4.47;1.75;;;19.20;99.90;;;;;;5013771;28;20636;-83
2022/06/25 02:24:20;;;;;;;5.55;2.20;;;19.20;99.90;;;;;;5012353;28;20178;-80
2022/06/25 02:26:46;;;;;;;2.70;1.92;;;19.20;99.90;;;;;;5012400;28;20577;-80
2022/06/25 02:29:12;;;;;;;7.57;2.60;;;19.30;99.90;;;;;;5013471;28;20192;-79
2022/06/25 02:31:37;;;;;;;3.67;2.47;;;19.10;99.90;;;;;;5012520;28;20705;-78
2022/06/25 02:34:03;;;;;;;21.55;2.72;;;19.10;99.90;;;;;;5013967;28;20246;-79
2022/06/25 02:36:28;;;;;;;5.00;2.70;;;19.20;99.90;;;;;;5013786;28;20169;-80
2022/06/25 02:38:54;;;;;;;5.10;2.53;;;19.20;99.90;;;;;;5013267;28;20234;-80
2022/06/25 02:41:20;;;;;;;2.58;2.38;;;19.10;99.90;;;;;;5013971;28;20211;-79
2022/06/25 02:43:45;;;;;;;5.90;2.92;;;19.10;99.90;;;;;;5012301;28;20612;-79
2022/06/25 02:46:11;;;;;;;3.90;2.78;;;19.00;99.90;;;;;;5014051;28;20174;-79
2022/06/25 02:48:36;;;;;;;4.03;3.03;;;19.20;99.90;;;;;;5013258;28;20188;-79
2022/06/25 02:51:02;;;;;;;5.07;2.88;;;19.20;99.90;;;;;;5013301;28;20200;-89
2022/06/25 02:53:28;;;;;;;3.55;2.33;;;19.00;99.90;;;;;;5013293;28;20204;-80
2022/06/25 02:58:56;;;;;;;4.22;3.13;;;19.20;99.90;;;;;;5013267;28;20203;-78
2022/06/25 03:01:23;;;;;;;7.10;2.65;;;19.20;99.90;;;;;;5011994;28;20169;-80
2022/06/25 03:03:49;;;;;;;4.25;2.60;;;19.10;99.90;;;;;;5012969;28;20188;-79
2022/06/25 03:06:15;;;;;;;6.13;2.58;;;19.20;99.90;;;;;;5013114;28;20163;-80
2022/06/25 03:08:40;;;;;;;4.45;2.70;;;19.20;99.90;;;;;;5011269;28;20291;-79
2022/06/25 03:11:06;;;;;;;4.30;2.72;;;19.00;99.90;;;;;;5011410;28;20207;-79
2022/06/25 03:13:36;;;;;;;4.47;2.00;;;18.80;99.90;;;;;;5015252;28;20695;-79
2022/06/25 03:16:02;;;;;;;5.68;2.17;;;18.80;99.90;;;;;;5017865;28;20201;-80
2022/06/25 03:18:28;;;;;;;3.85;2.53;;;18.90;99.90;;;;;;5015982;28;20185;-80
2022/06/25 03:20:53;;;;;;;7.97;2.47;;;19.00;99.90;;;;;;5014449;28;20525;-81
2022/06/25 03:23:19;;;;;;;3.67;2.13;;;19.00;99.90;;;;;;5014240;28;20177;-79
2022/06/25 03:25:46;;;;;;;5.25;3.38;;;19.00;99.90;;;;;;5013878;28;20188;-80
2022/06/25 03:28:12;;;;;;;5.90;2.92;;;19.00;99.90;;;;;;5012976;28;20556;-79
2022/06/25 03:30:37;;;;;;;8.55;2.63;;;19.00;99.90;;;;;;5012973;28;20171;-79
2022/06/25 03:33:03;;;;;;;4.18;2.70;;;19.10;99.90;;;;;;5012933;28;20216;-79
2022/06/25 03:35:30;;;;;;;4.20;2.90;;;19.10;99.90;;;;;;5012281;28;20170;-80
2022/06/25 03:37:56;;;;;;;3.55;2.65;;;19.10;99.90;;;;;;5012247;28;20299;-79
2022/06/25 03:40:22;;;;;;;20.58;2.92;;;19.10;99.90;;;;;;5013310;28;20168;-80
2022/06/25 03:42:48;;;;;;;5.22;2.67;;;19.10;99.90;;;;;;5012883;28;20169;-79
2022/06/25 03:45:13;;;;;;;7.95;3.15;;;19.20;99.90;;;;;;5012920;28;20269;-79
2022/06/25 03:47:39;;;;;;;5.82;2.92;;;19.10;99.90;;;;;;5013763;28;20263;-81
2022/06/25 03:50:05;;;;;;;3.58;2.92;;;19.20;99.90;;;;;;5014805;28;20172;-79
2022/06/25 03:52:31;;;;;;;10.88;3.70;;;19.30;99.90;;;;;;5016453;28;20172;-79
2022/06/25 03:54:57;;;;;;;7.07;3.08;;;19.20;99.90;;;;;;5023420;28;20267;-79
2022/06/25 03:57:23;;;;;;;10.57;3.42;;;19.40;99.90;;;;;;5034742;28;20172;-79
2022/06/25 03:59:48;;;;;;;5.22;3.28;;;19.50;99.90;;;;;;5035723;28;20591;-80
2022/06/25 04:02:14;;;;;;;9.10;3.22;;;19.70;99.90;;;;;;5018938;28;20164;-79
2022/06/25 04:04:39;;;;;;;6.20;2.75;;;19.90;99.90;;;;;;5017476;28;20207;-79
2022/06/25 04:07:05;;;;;;;4.35;2.60;;;19.90;99.90;;;;;;5016890;28;20180;-80
2022/06/25 04:09:31;;;;;;;8.90;2.80;;;20.00;99.90;;;;;;5038627;23;20223;-83
2022/06/25 04:11:56;;;;;;;3.45;2.88;;;20.10;99.90;;;;;;5018835;28;20394;-82
2022/06/25 04:14:22;;;;;;;4.03;2.60;;;20.10;99.90;;;;;;5018991;28;20563;-83
2022/06/25 04:16:49;;;;;;;4.13;2.33;;;19.90;99.90;;;;;;5018701;28;20164;-83
2022/06/25 04:19:14;;;;;;;3.75;2.22;;;19.80;99.90;;;;;;5018258;28;20188;-83
2022/06/25 04:21:40;;;;;;;3.17;2.30;;;19.90;99.90;;;;;;5018293;28;20168;-85
2022/06/25 04:24:05;;;;;;;7.00;2.95;;;19.80;99.90;;;;;;5018535;28;20168;-84
2022/06/25 04:26:31;;;;;;;4.40;2.90;;;19.90;99.90;;;;;;5018326;28;20625;-84
2022/06/25 04:29:08;;;;;;;3.22;2.50;;;20.00;99.90;;;;;;5034972;28;20199;-84
2022/06/25 04:31:36;;;;;;;4.50;2.83;;;19.80;99.90;;;;;;5018296;28;20159;-84
2022/06/25 04:34:03;;;;;;;4.68;2.45;;;19.90;99.90;;;;;;5035765;28;20552;-84
2022/06/25 04:36:29;;;;;;;6.65;2.70;;;20.00;99.90;;;;;;5035655;28;20164;-84
2022/06/25 04:38:55;;;;;;;5.43;2.30;;;20.00;99.90;;;;;;5035781;28;20203;-83
2022/06/25 04:41:21;;;;;;;4.30;2.53;;;19.90;99.90;;;;;;5017938;28;20694;-83
2022/06/25 04:43:47;;;;;;;18.20;2.72;;;20.00;99.90;;;;;;5035808;28;20198;-84
2022/06/25 04:46:13;;;;;;;22.17;3.00;;;20.00;99.90;;;;;;5034575;28;20250;-84
2022/06/25 04:48:39;;;;;;;2.95;2.33;;;20.10;99.90;;;;;;5017998;28;20691;-84
2022/06/25 04:51:04;;;;;;;7.22;2.00;;;20.10;99.90;;;;;;5018113;28;20167;-85
2022/06/25 04:53:30;;;;;;;5.57;2.10;;;19.90;99.90;;;;;;5017852;28;20214;-84
2022/06/25 04:55:56;;;;;;;4.43;2.63;;;19.90;99.90;;;;;;5017600;28;20283;-84
2022/06/25 04:58:22;;;;;;;4.07;1.63;;;19.90;99.90;;;;;;5035742;28;20218;-84
2022/06/25 05:00:47;;;;;;;7.22;2.42;;;19.80;99.90;;;;;;5017983;28;20708;-84
2022/06/25 05:03:13;;;;;;;3.20;1.90;;;19.70;99.90;;;;;;5035510;28;20171;-83
2022/06/25 05:05:38;;;;;;;5.57;2.10;;;19.60;99.90;;;;;;5017749;28;20211;-84
2022/06/25 05:08:04;;;;;;;9.38;1.98;;;19.80;99.90;;;;;;5035374;28;20226;-83
2022/06/25 05:10:30;;;;;;;3.55;1.88;;;19.90;99.90;;;;;;5035814;28;20252;-84
2022/06/25 05:13:13;;;;;;;6.57;1.77;;;20.00;99.90;;;;;;5035180;28;20199;-83
2022/06/25 05:15:43;;;;;;;3.22;1.67;;;20.10;99.90;;;;;;5017670;28;20214;-84
2022/06/25 05:18:09;;;;;;;6.53;1.80;;;19.90;99.90;;;;;;5017635;28;20184;-84
2022/06/25 05:20:39;;;;;;;8.52;1.15;;;19.90;99.90;;;;;;5035907;28;20160;-84
2022/06/25 05:23:06;;;;;;;3.08;1.55;;;20.00;99.90;;;;;;5035816;28;20179;-83
2022/06/25 05:25:31;;;;;;;7.88;1.50;;;20.10;99.90;;;;;;5035479;28;20163;-84
2022/06/25 05:27:57;;;;;;;5.65;1.40;;;19.90;99.90;;;;;;5017146;28;20211;-84
2022/06/25 05:30:22;;;;;;;6.28;1.60;;;20.10;99.90;;;;;;5035306;28;20160;-84
2022/06/25 05:32:48;;;;;;;2.92;1.60;;;20.10;99.90;;;;;;5034066;28;20212;-84
2022/06/25 05:35:13;;;;;;;3.10;1.60;;;20.10;99.90;;;;;;5034408;28;20176;-84
2022/06/25 05:37:39;;;;;;;2.05;1.38;;;19.90;99.90;;;;;;5017730;28;20180;-84
2022/06/25 05:40:05;;;;;;;5.20;1.40;;;20.00;99.90;;;;;;5017641;28;20199;-84
2022/06/25 05:42:31;;;;;;;3.92;1.60;;;19.90;99.90;;;;;;5035402;28;20167;-85
2022/06/25 05:44:57;;;;;;;4.00;1.30;;;20.10;99.90;;;;;;5036212;28;20251;-85
2022/06/25 05:47:22;;;;;;;6.68;1.88;;;20.10;99.90;;;;;;5036128;28;20196;-85
2022/06/25 05:49:48;;;;;;;3.55;1.30;;;20.00;99.90;;;;;;5018349;28;20172;-84
2022/06/25 05:52:14;;;;;;;4.50;1.35;;;20.10;99.90;;;;;;5035912;28;20255;-85
2022/06/25 05:54:40;;;;;;;3.22;1.30;;;20.10;99.90;;;;;;5017979;28;20204;-85
2022/06/25 05:57:07;;;;;;;5.72;1.50;;;20.30;99.90;;;;;;5036494;28;20168;-85
2022/06/25 05:59:33;;;;;;;3.83;1.15;;;20.30;99.90;;;;;;5017982;28;20661;-85
2022/06/25 06:01:58;;;;;;;3.47;1.60;;;20.30;99.90;;;;;;5017557;28;20210;-83
2022/06/25 06:04:24;;;;;;;4.25;1.05;;;20.40;99.90;;;;;;5035755;28;20168;-83
2022/06/25 06:06:51;;;;;;;27.98;1.50;;;20.30;99.90;;;;;;5018317;28;20164;-84
2022/06/25 06:09:16;;;;;;;8.48;0.98;;;20.30;99.90;;;;;;5017983;28;20576;-84
2022/06/25 06:11:42;;;;;;;4.72;0.90;;;20.30;99.90;;;;;;5036053;28;20175;-85
2022/06/25 06:14:08;;;;;;;1.63;1.02;;;20.20;99.90;;;;;;5027215;28;20227;-84
2022/06/25 06:16:34;;;;;;;6.65;1.27;;;20.20;99.90;;;;;;5034975;28;20179;-82
2022/06/25 06:18:59;;;;;;;5.85;1.58;;;20.30;99.90;;;;;;5051886;28;20183;-82
2022/06/25 06:21:25;;;;;;;8.88;1.25;;;20.10;99.90;;;;;;5055823;28;20203;-82
2022/06/25 06:23:50;;;;;;;4.20;1.00;;;19.90;99.90;;;;;;5032052;28;20186;-82
2022/06/25 06:26:16;;;;;;;2.83;1.08;;;19.90;99.90;;;;;;5045972;28;20211;-80
2022/06/25 06:28:43;;;;;;;3.90;1.48;;;19.90;99.90;;;;;;5023288;28;20195;-90
2022/06/25 06:31:09;;;;;;;2.60;1.42;;;20.10;99.90;;;;;;5034267;28;20246;-82
2022/06/25 06:33:35;;;;;;;8.27;1.60;;;20.30;99.90;;;;;;5033312;28;20207;-80
2022/06/25 06:36:01;;;;;;;14.18;1.67;;;20.40;99.90;;;;;;5034224;28;20221;-80
2022/06/25 06:38:27;;;;;;;4.93;1.10;;;20.80;99.90;;;;;;5033971;28;20274;-81
2022/06/25 06:40:52;;;;;;;5.38;1.23;;;21.00;99.90;;;;;;5033815;28;20164;-84
2022/06/25 06:43:18;;;;;;;1.38;1.10;;;21.20;99.90;;;;;;5033752;28;20658;-85
2022/06/25 06:45:44;;;;;;;3.60;1.33;;;21.30;99.90;;;;;;5032916;28;20175;-88
2022/06/25 06:48:09;;;;;;;5.68;1.67;;;21.30;99.90;;;;;;5032455;28;20283;-79
2022/06/25 06:50:35;;;;;;;8.30;1.20;;;21.40;99.90;;;;;;5033465;28;20187;-81
2022/06/25 06:53:01;;;;;;;6.05;1.35;;;21.20;99.90;;;;;;5032894;28;20671;-81
2022/06/25 06:55:26;;;;;;;4.63;0.98;;;21.00;99.90;;;;;;5033135;28;20655;-83
2022/06/25 06:57:52;;;;;;;1.85;1.30;;;20.90;99.90;;;;;;5032849;28;20621;-83
2022/06/25 07:00:17;;;;;;;12.43;1.30;;;21.20;99.90;;;;;;5033035;28;20168;-84
2022/06/25 07:02:43;;;;;;;3.95;1.38;;;21.00;99.90;;;;;;5033037;28;20218;-82
2022/06/25 07:05:08;;;;;;;9.23;2.28;;;21.20;99.90;;;;;;5033144;28;20218;-81
2022/06/25 07:07:34;;;;;;;1.52;1.00;;;21.40;99.90;;;;;;5033011;28;20196;-80
2022/06/25 07:10:00;;;;;;;2.28;1.00;;;21.50;99.90;;;;;;5033452;28;20188;-80
2022/06/25 07:12:26;;;;;;;2.78;1.10;;;22.00;99.90;;;;;;5032824;28;20164;-85
2022/06/25 07:14:51;;;;;;;3.10;1.30;;;22.60;99.90;;;;;;5032058;28;20195;-81
2022/06/25 07:17:17;;;;;;;7.57;1.45;;;23.90;99.90;;;;;;5031570;28;20555;-84
2022/06/25 07:19:42;;;;;;;2.08;0.98;;;23.90;99.90;;;;;;5032771;28;20179;-83
2022/06/25 07:22:08;;;;;;;1.02;0.93;;;24.30;99.90;;;;;;5032315;28;20171;-82
2022/06/25 07:24:34;;;;;;;7.72;1.10;;;24.40;99.90;;;;;;5031944;28;20321;-85
2022/06/25 07:27:00;;;;;;;4.88;1.27;;;24.70;99.90;;;;;;4999062;28;20273;-82
2022/06/25 07:29:25;;;;;;;2.85;1.10;;;25.40;99.90;;;;;;5012140;28;20679;-82
2022/06/25 07:31:51;;;;;;;2.15;1.13;;;24.80;99.90;;;;;;5010659;28;20264;-80
2022/06/25 07:34:17;;;;;;;10.35;1.83;;;24.90;99.90;;;;;;5012848;28;20287;-83
2022/06/25 07:36:43;;;;;;;4.28;1.35;;;23.90;99.90;;;;;;4995429;28;20168;-83
2022/06/25 07:39:09;;;;;;;11.07;1.35;;;23.70;99.90;;;;;;4995893;28;20644;-83
2022/06/25 07:41:34;;;;;;;3.80;1.65;;;23.30;99.90;;;;;;4995577;28;20172;-82
2022/06/25 07:44:00;;;;;;;3.00;1.48;;;23.20;99.90;;;;;;4995483;28;20527;-84
2022/06/25 07:46:26;;;;;;;3.90;1.75;;;23.20;99.90;;;;;;5013408;28;20559;-83
2022/06/25 07:48:52;;;;;;;9.85;2.10;;;23.20;99.90;;;;;;5014621;28;20210;-78
2022/06/25 07:54:02;;;;;;;8.85;2.03;;;23.00;99.90;;;;;;5012261;28;20215;-81
2022/06/25 07:56:28;;;;;;;5.47;1.70;;;23.20;99.90;;;;;;5012132;28;20570;-89
2022/06/25 07:58:54;;;;;;;4.50;2.28;;;23.10;99.90;;;;;;5011840;28;20189;-80
2022/06/25 08:01:19;;;;;;;5.45;2.53;;;23.20;99.90;;;;;;5013049;28;20223;-90
2022/06/25 08:03:45;;;;;;;6.30;2.78;;;23.40;99.90;;;;;;5018669;28;20222;-85
2022/06/25 08:06:12;;;;;;;7.93;3.40;;;23.30;99.90;;;;;;5021001;28;20251;-89
2022/06/25 08:08:39;;;;;;;7.22;2.78;;;23.30;99.90;;;;;;5017694;28;20189;-84
2022/06/25 08:11:05;;;;;;;7.18;3.25;;;23.30;99.90;;;;;;5014519;28;20257;-78
2022/06/25 08:13:30;;;;;;;4.68;2.13;;;23.00;99.90;;;;;;5012186;28;20205;-78
2022/06/25 08:15:56;;;;;;;5.78;2.08;;;23.10;99.90;;;;;;5013340;28;20180;-90
2022/06/25 08:18:22;;;;;;;7.07;1.88;;;23.30;99.90;;;;;;5014376;28;20215;-84
2022/06/25 08:20:49;;;;;;;3.83;2.33;;;23.30;99.90;;;;;;5015015;28;20227;-84
2022/06/25 08:23:16;;;;;;;3.08;1.45;;;23.40;99.90;;;;;;4997328;28;20169;-90
2022/06/25 08:25:42;;;;;;;6.78;1.98;;;23.80;99.90;;;;;;5015432;28;20161;-88
2022/06/25 08:28:07;;;;;;;3.80;2.00;;;24.00;99.90;;;;;;5019874;28;20362;-83
2022/06/25 08:30:35;;;;;;;4.28;2.03;;;24.20;99.90;;;;;;5027029;28;20172;-92
2022/06/25 08:33:01;;;;;;;5.25;1.73;;;24.60;99.90;;;;;;5027557;28;20235;-81
2022/06/25 08:35:33;;;;;;;4.78;2.05;;;25.00;99.90;;;;;;5031455;28;20169;-77
2022/06/25 08:38:02;;;;;;;8.45;2.35;;;25.10;99.90;;;;;;5031383;28;20192;-86
2022/06/25 08:40:29;;;;;;;6.88;1.70;;;24.80;99.90;;;;;;5027948;28;20168;-77
2022/06/25 08:43:16;;;;;;;3.20;2.28;;;24.30;99.90;;;;;;5027112;28;20188;-90
2022/06/25 08:46:14;;;;;;;10.85;2.00;;;23.90;99.90;;;;;;5029903;28;20157;-77
2022/06/25 08:48:50;;;;;;;6.47;2.80;;;23.90;99.90;;;;;;5010455;28;20201;-91
2022/06/25 08:51:19;;;;;;;3.22;2.10;;;23.50;99.90;;;;;;5019135;28;20601;-77
2022/06/25 08:53:45;;;;;;;12.43;2.20;;;23.20;99.90;;;;;;5017386;28;20224;-77
2022/06/25 08:56:13;;;;;;;8.15;2.17;;;23.20;99.90;;;;;;5029320;28;20247;-79
2022/06/25 08:58:45;;;;;;;4.53;1.50;;;23.20;99.90;;;;;;5026009;28;20192;-77
2022/06/25 09:01:12;;;;;;;5.60;1.00;;;23.20;99.90;;;;;;5022646;28;20173;-77
2022/06/25 09:03:41;;;;;;;2.28;1.15;;;23.10;99.90;;;;;;5021218;28;20172;-79
2022/06/25 09:06:15;;;;;;;5.85;1.05;;;23.20;99.90;;;;;;5017966;28;20175;-94
2022/06/25 09:08:42;;;;;;;3.30;1.25;;;23.30;99.90;;;;;;5017047;28;20682;-78
2022/06/25 09:11:09;;;;;;;2.15;1.45;;;23.20;99.90;;;;;;5015699;28;20656;-88
2022/06/25 09:13:34;;;;;;;7.65;1.20;;;23.40;99.90;;;;;;5016018;28;20270;-86
2022/06/25 09:16:00;;;;;;;2.92;1.42;;;23.70;99.90;;;;;;5015829;28;20239;-87
2022/06/25 09:18:32;;;;;;;5.95;1.55;;;23.80;99.90;;;;;;5017713;28;20188;-77
2022/06/25 09:21:10;;;;;;;6.18;1.42;;;23.50;99.90;;;;;;5037890;28;20175;-83
2022/06/25 09:23:55;;;;;;;3.05;1.30;;;23.40;99.90;;;;;;5036305;28;20176;-89
2022/06/25 09:26:23;;;;;;;3.40;1.30;;;23.20;99.90;;;;;;5036992;28;20180;-89
2022/06/25 09:28:49;;;;;;;2.42;1.25;;;23.20;99.90;;;;;;5035488;28;20652;-83
2022/06/25 09:31:34;;;;;;;6.78;1.50;;;23.20;99.90;;;;;;5034950;28;20224;-78
2022/06/25 09:34:05;;;;;;;2.33;1.27;;;23.40;99.90;;;;;;5034701;28;20234;-80
2022/06/25 09:36:31;;;;;;;2.15;1.38;;;23.40;99.90;;;;;;5036006;28;20176;-80
2022/06/25 09:38:57;;;;;;;2.88;1.35;;;23.40;99.90;;;;;;5035901;28;20509;-90
2022/06/25 09:41:26;;;;;;;9.95;2.00;;;23.80;99.90;;;;;;5035648;28;20171;-83
2022/06/25 09:43:52;;;;;;;5.70;1.63;;;23.90;99.90;;;;;;5017282;28;20624;-84
2022/06/25 09:46:18;;;;;;;17.05;2.17;;;23.90;99.90;;;;;;5034654;28;20179;-86
2022/06/25 09:48:44;;;;;;;6.65;2.05;;;23.90;99.90;;;;;;5017087;28;20192;-83
2022/06/25 09:51:15;;;;;;;9.40;1.88;;;23.70;99.90;;;;;;5017179;28;20168;-85
2022/06/25 09:53:59;;;;;;;3.90;1.50;;;24.20;99.90;;;;;;5034580;28;20215;-84
2022/06/25 09:56:31;;;;;;;6.57;1.80;;;24.40;99.90;;;;;;5016838;28;20171;-84
2022/06/25 09:58:58;;;;;;;4.28;1.50;;;24.30;99.90;;;;;;5034221;28;20643;-83
2022/06/25 10:01:26;;;;;;;11.30;1.77;;;24.30;99.90;;;;;;5016649;28;20164;-84
2022/06/25 10:03:53;;;;;;;3.90;1.98;;;24.70;99.90;;;;;;5017340;28;20172;-85
2022/06/25 10:06:21;;;;;;;2.63;1.90;;;24.50;99.90;;;;;;5033507;28;20188;-85
2022/06/25 10:08:58;;;;;;;8.93;2.22;;;24.60;99.90;;;;;;5016940;28;20191;-85
2022/06/25 10:11:30;;;;;;;2.95;1.42;;;24.80;99.90;;;;;;5035503;28;20175;-85
2022/06/25 10:13:56;;;;;;;3.03;1.30;;;24.60;99.90;;;;;;5034754;28;20206;-85
2022/06/25 10:16:24;;;;;;;7.55;1.40;;;24.70;99.90;;;;;;5016635;28;20168;-86
2022/06/25 10:18:49;;;;;;;6.47;1.65;;;24.70;99.90;;;;;;5016715;28;20219;-84
2022/06/25 10:21:17;;;;;;;4.20;1.38;;;25.00;99.90;;;;;;5034694;28;20178;-84
2022/06/25 10:23:44;;;;;;;2.88;2.08;;;25.10;99.90;;;;;;5034322;28;20222;-85
2022/06/25 10:26:10;;;;;;;5.72;1.25;;;25.20;99.90;;;;;;5017340;28;20160;-87
2022/06/25 10:28:36;;;;;;;7.30;1.88;;;24.80;99.90;;;;;;5017593;28;20184;-85
2022/06/25 10:31:10;;;;;;;4.25;1.30;;;25.00;99.90;;;;;;5019465;28;20533;-84
2022/06/25 10:33:59;;;;;;;10.60;1.95;;;25.00;99.90;;;;;;5036745;28;20226;-85
2022/06/25 10:36:47;;;;;;;6.10;1.30;;;25.20;99.90;;;;;;5054508;28;20164;-85
2022/06/25 10:39:40;;;;;;;1.40;0.93;;;25.20;99.90;;;;;;5036361;28;20163;-86
2022/06/25 10:45:06;;;;;;;1.90;1.30;;;25.80;99.90;;;;;;5042217;28;20310;-84
2022/06/25 10:47:44;;;;;;;3.15;1.40;;;26.00;99.90;;;;;;5018306;28;20293;-87
2022/06/25 10:50:22;;;;;;;6.03;1.60;;;25.90;99.90;;;;;;5015651;28;20186;-83
2022/06/25 10:53:03;;;;;;;21.98;1.65;;;26.00;99.90;;;;;;5014986;28;20175;-81
2022/06/25 10:55:32;;;;;;;9.80;1.38;;;25.70;99.90;;;;;;5015411;28;20199;-83
2022/06/25 10:58:22;;;;;;;3.70;1.25;;;25.40;99.90;;;;;;5031319;28;20253;-81
2022/06/25 11:01:03;;;;;;;5.93;1.20;;;25.00;99.90;;;;;;5034092;28;20214;-86
2022/06/25 11:03:30;;;;;;;17.88;1.90;;;24.80;99.90;;;;;;5032951;28;20167;-81
2022/06/25 11:05:57;;;;;;;1.60;0.93;;;25.10;99.90;;;;;;5032660;28;20627;-81
2022/06/25 11:08:34;;;;;;;3.95;0.88;;;25.30;99.90;;;;;;5033162;28;20191;-79
2022/06/25 11:11:00;;;;;;;6.03;1.23;;;25.60;99.90;;;;;;5015427;28;20187;-81
2022/06/25 11:13:27;;;;;;;7.80;1.30;;;26.00;99.90;;;;;;5033143;28;20206;-81
2022/06/25 11:15:53;;;;;;;9.68;1.67;;;26.40;99.90;;;;;;5015198;28;20527;-81
2022/06/25 11:18:19;;;;;;;3.13;1.10;;;26.40;99.90;;;;;;5033104;28;20223;-82
2022/06/25 11:20:46;;;;;;;11.95;1.75;;;26.20;99.90;;;;;;5015476;28;20596;-80
2022/06/25 11:23:14;;;;;;;1.98;0.80;;;26.00;99.90;;;;;;5031705;28;20213;-81
2022/06/25 11:28:47;;;;;;;6.88;1.45;;;25.80;99.90;;;;;;5032901;28;20275;-80
2022/06/25 11:31:17;;;;;;;2.08;1.42;;;25.90;99.90;;;;;;5032630;28;20231;-80
2022/06/25 11:33:43;;;;;;;7.18;1.20;;;25.60;99.90;;;;;;5032599;28;20634;-79
2022/06/25 11:36:10;;;;;;;5.10;1.00;;;25.90;99.90;;;;;;5032414;28;20218;-81
2022/06/25 11:38:36;;;;;;;3.35;0.80;;;25.90;99.90;;;;;;5031144;28;20541;-81
2022/06/25 11:41:03;;;;;;;1.33;1.00;;;25.90;99.90;;;;;;5032578;28;20224;-80
2022/06/25 11:43:29;;;;;;;2.50;0.80;;;25.90;99.90;;;;;;5032610;28;20180;-80
2022/06/25 11:45:59;;;;;;;1.33;1.00;;;26.00;99.90;;;;;;5032823;28;20642;-79
2022/06/25 11:48:26;;;;;;;4.35;1.00;;;26.30;99.90;;;;;;5014876;28;20594;-81
2022/06/25 11:50:59;;;;;;;1.70;1.20;;;26.40;99.90;;;;;;5031353;28;20170;-81
2022/06/25 11:53:24;;;;;;;2.67;1.80;;;26.40;99.90;;;;;;5032364;28;20207;-79
2022/06/25 11:55:57;;;;;;;2.67;1.13;;;26.50;99.90;;;;;;5032383;28;20164;-79
2022/06/25 11:58:22;;;;;;;3.10;0.82;;;26.20;99.90;;;;;;5032024;28;20188;-80
2022/06/25 12:00:48;;;;;;;7.03;1.10;;;26.10;99.90;;;;;;5032559;28;20198;-80
2022/06/25 12:03:14;;;;;;;1.17;1.08;;;26.10;99.90;;;;;;5032774;28;20164;-80
2022/06/25 12:05:39;;;;;;;1.15;0.80;;;26.20;99.90;;;;;;5032503;28;20215;-80
2022/06/25 12:08:05;;;;;;;3.53;0.90;;;25.90;99.90;;;;;;5032888;28;20702;-80
2022/06/25 12:10:31;;;;;;;1.38;1.00;;;26.10;99.90;;;;;;5033841;28;20186;-79
2022/06/25 12:12:57;;;;;;;3.22;1.38;;;26.10;99.90;;;;;;5036292;28;20192;-79
2022/06/25 12:15:30;;;;;;;2.22;1.10;;;26.20;99.90;;;;;;5036827;28;20202;-79
2022/06/25 12:18:03;;;;;;;3.83;0.82;;;25.80;99.90;;;;;;5035416;28;20314;-79
2022/06/25 12:20:29;;;;;;;1.83;1.05;;;25.50;99.90;;;;;;5018606;28;20203;-79
2022/06/25 12:22:57;;;;;;;5.57;1.13;;;25.50;99.90;;;;;;5035894;28;20203;-80
2022/06/25 12:25:27;;;;;;;2.30;1.58;;;25.40;99.90;;;;;;5035846;28;20179;-79
2022/06/25 12:27:53;;;;;;;5.47;2.53;;;25.30;99.90;;;;;;5041647;28;20199;-81
2022/06/25 12:30:30;;;;;;;4.32;3.05;;;25.10;99.90;;;;;;5035071;28;20599;-80
2022/06/25 12:33:09;;;;;;;5.70;1.50;;;24.90;99.90;;;;;;5034529;28;20242;-79
2022/06/25 12:35:40;;;;;;;1.58;1.20;;;24.60;99.90;;;;;;5034521;28;20172;-80
2022/06/25 12:38:11;;;;;;;2.53;1.13;;;24.50;99.90;;;;;;5036053;28;20259;-80
2022/06/25 12:40:43;;;;;;;3.40;1.10;;;24.00;99.90;;;;;;5036044;28;20175;-80
2022/06/25 12:43:10;;;;;;;1.73;1.33;;;23.60;99.90;;;;;;5017705;28;20180;-81
2022/06/25 12:45:38;;;;;;;6.15;1.55;;;23.40;99.90;;;;;;5035313;28;20171;-80
2022/06/25 12:48:05;;;;;;;7.30;2.00;;;23.30;99.90;;;;;;5035664;28;20196;-79
2022/06/25 12:50:36;;;;;;;6.30;1.60;;;23.20;99.90;;;;;;5035564;28;20164;-80
2022/06/25 12:53:16;;;;;;;5.05;1.55;;;23.30;99.90;;;;;;5033861;28;20203;-79
2022/06/25 12:55:48;;;;;;;2.95;1.45;;;23.40;99.90;;;;;;5035368;28;20341;-79
2022/06/25 12:58:15;;;;;;;6.43;2.40;;;23.40;99.90;;;;;;5035199;28;20192;-79
2022/06/25 13:00:43;;;;;;;2.28;1.10;;;23.40;99.90;;;;;;5035499;28;20168;-80
2022/06/25 13:03:10;;;;;;;2.70;1.25;;;23.10;99.90;;;;;;5035304;28;20637;-81
2022/06/25 13:05:36;;;;;;;1.38;1.08;;;22.70;99.90;;;;;;5033982;28;20160;-79
2022/06/25 13:08:03;;;;;;;2.35;1.40;;;22.50;99.90;;;;;;5035146;28;20195;-79